createdAt,value
2023-03-22T00:56:25.733Z,23.11
2023-03-22T01:00:26.743Z,23.48
2023-03-22T01:04:26.817Z,23.52
2023-03-22T01:08:26.968Z,23.55
2023-03-22T01:12:27.172Z,23.55
2023-03-22T01:16:27.343Z,23.55
2023-03-22T01:20:27.413Z,23.55
2023-03-22T01:24:27.576Z,23.55
2023-03-22T01:28:27.789Z,23.55
2023-03-22T01:32:27.916Z,23.55
2023-03-22T01:36:28.084Z,23.55
2023-03-22T01:40:28.262Z,23.55
2023-03-22T01:44:28.452Z,23.56
2023-03-22T01:48:28.630Z,23.56
2023-03-22T01:52:28.785Z,23.56
2023-03-22T01:56:29.011Z,23.56
2023-03-22T03:48:34.044Z,23.56
2023-03-22T03:56:34.052Z,23.57
2023-03-22T04:00:34.054Z,23.57
2023-03-22T04:04:34.246Z,23.58
2023-03-22T04:08:34.400Z,23.57
2023-03-22T04:12:34.535Z,23.58
2023-03-22T04:16:35.197Z,23.59
2023-03-22T04:20:35.065Z,23.58
2023-03-22T04:24:35.586Z,23.58
2023-03-22T06:08:39.629Z,23.63
2023-03-22T06:12:39.334Z,23.64
2023-03-22T06:16:39.708Z,23.65
2023-03-22T06:20:39.804Z,23.66
2023-03-22T06:24:40.131Z,23.71
2023-03-22T06:28:40.126Z,23.76
2023-03-22T06:32:39.885Z,23.82
2023-03-22T06:36:40.119Z,23.86
2023-03-22T06:40:40.487Z,23.92
2023-03-22T06:44:40.124Z,23.97
2023-03-22T06:48:39.903Z,24.04
2023-03-22T06:52:40.122Z,24.06
2023-03-22T06:56:40.182Z,24.11
2023-03-22T07:04:40.697Z,24.10
2023-03-22T07:08:41.130Z,24.07
2023-03-22T07:12:41.141Z,24.06
2023-03-22T07:16:41.136Z,24.04
2023-03-22T07:24:53.876Z,24.02
2023-03-22T07:28:41.140Z,24.01
2023-03-22T07:32:41.138Z,24.00
2023-03-22T07:40:40.880Z,24.01
2023-03-22T07:44:40.657Z,24.01
2023-03-22T07:48:41.190Z,24.02
2023-03-22T11:36:42.277Z,24.33
2023-03-22T11:44:42.126Z,24.21
2023-03-22T11:48:42.455Z,24.29
2023-03-22T11:52:42.796Z,24.33
2023-03-22T12:16:42.594Z,24.52
2023-03-22T13:32:43.403Z,25.17
2023-03-22T21:00:49.874Z,23.48
2023-03-22T21:04:50.831Z,23.47
2023-03-22T21:08:50.796Z,23.47
2023-03-22T21:12:50.784Z,23.51
2023-03-22T21:16:50.720Z,23.54
2023-03-22T21:20:50.684Z,23.56
2023-03-22T21:24:50.663Z,23.58
2023-03-22T21:28:50.752Z,23.60
2023-03-22T21:32:50.913Z,23.62
2023-03-22T21:36:51.158Z,23.62
2023-03-22T21:40:51.338Z,23.62
2023-03-22T21:44:51.570Z,23.62
2023-03-22T21:48:51.732Z,23.62
2023-03-22T21:52:51.925Z,23.62
